Dallas Love, TX

6:09 AM CST on December 11, 2016 (GMT -0600)
North Hill Estates | | Change Station

Elev 597 ft 32.85 °N, 96.76 °W | Updated 3 minutes ago

Overcast
Overcast
49.1 °F
Feels Like 49.1 °F
N
2.0
Wind Variable Wind from South
Gusts 2.0 mph

Today
High -- | Low -- °F
--% Chance of Precip.
Yesterday
High -- | Low -- °F
Precip. -- in
Pressure 29.98 in
Visibility 10.0 miles
Clouds Overcast 1300 ft
Dew Point 41.1 °F
Humidity 74%
Rainfall 0.00 in
Snow Depth Not available.
7:20 AM 5:21 PM
Waxing Gibbous, 91% visible
METAR KDAL 111153Z 18012G19KT 10SM -RA OVC013 11/07 A2998 RMK AO2 RAB48 SLP151 P0000 60000 T01060072 10106 20094 56025
Pressure 29.98 in
Visibility 10.0 miles
Clouds Overcast 1300 ft
Dew Point 41.1 °F
Humidity 74%
Rainfall 0.00 in
Snow Depth Not available.
7:20 AM 5:21 PM
Waxing Gibbous, 91% visible
METAR KDAL 111153Z 18012G19KT 10SM -RA OVC013 11/07 A2998 RMK AO2 RAB48 SLP151 P0000 60000 T01060072 10106 20094 56025

10-Day Weather Forecast

Almanac

Astronomy

Dec. 11, 2016 Rise Set
Actual Time
Civil Twilight
Nautical Twilight
Astronomical Twilight
Moon
Length of Visible Light
Length of Day
Tomorrow will be .
, % of the Moon is Illuminated

Today's Extremes

State Highs State Lows

Community

WunderPhotos

Upload Photos

1,956,710 photos uploaded!

WunderBlog® & News

Nearby

Air Quality

  Air Quality AQ Index Pollutant
Not available.

Snow Depth

Station Depth Elevation

Earthquake Activity

City Distance Mag. Time & Date
Minimum magnitude displayed is 2.5.

Coastal Water Temperatures

Place Temperature

Stations

Nearby Weather Stations

Station Location Temp. Windchill Dew Point Humidity Wind Precip. Elev Updated Type
                   

Watches & Warnings

There are currently no watches in effect.